Time;durP1;ratioP1;P1;durP2;ratioP2;P2;SDS_P1;SDS_P2;PMS_P1;PMS_P2;Temp;Humidity;BMP_temperature;BMP_pressure;BME280_temperature;BME280_humidity;BME280_pressure;Samples;Min_cycle;Max_cycle;Signal;HPM_P1;HPM_P2
2022/04/12 00:02:04;;;;;;;7.53;3.70;;;8.40;99.40;;;;;;5057559;28;20400;-88
2022/04/12 00:04:30;;;;;;;7.97;3.70;;;8.40;99.90;;;;;;5075251;28;20078;-88
2022/04/12 00:06:55;;;;;;;7.05;3.63;;;8.50;99.90;;;;;;5075310;28;20028;-88
2022/04/12 00:09:54;;;;;;;8.98;4.07;;;8.40;99.90;;;;;;5075420;28;20044;-87
2022/04/12 00:12:19;;;;;;;9.70;4.38;;;8.40;99.90;;;;;;5055165;28;20566;-87
2022/04/12 00:15:07;;;;;;;9.80;4.47;;;8.30;99.90;;;;;;5055385;28;20029;-88
2022/04/12 00:20:20;;;;;;;8.68;4.60;;;8.20;99.90;;;;;;5075307;28;20035;-87
2022/04/12 00:22:45;;;;;;;7.00;3.28;;;8.10;99.90;;;;;;5072232;28;20040;-87
2022/04/12 00:25:18;;;;;;;9.43;3.95;;;7.90;99.90;;;;;;5057234;28;20036;-87
2022/04/12 00:27:44;;;;;;;9.35;4.13;;;7.80;99.90;;;;;;5075192;28;20423;-87
2022/04/12 00:30:13;;;;;;;9.23;4.32;;;7.70;99.90;;;;;;5075072;28;20024;-87
2022/04/12 00:32:40;;;;;;;6.07;3.45;;;7.60;99.90;;;;;;5074632;28;20017;-88
2022/04/12 00:35:06;;;;;;;10.63;4.45;;;7.40;99.90;;;;;;5074784;28;20023;-87
2022/04/12 00:37:31;;;;;;;8.75;4.30;;;7.40;99.90;;;;;;5074889;28;20024;-88
2022/04/12 00:40:08;;;;;;;8.10;4.25;;;7.30;99.90;;;;;;5074789;28;20028;-87
2022/04/12 00:42:33;;;;;;;8.38;4.72;;;7.30;99.90;;;;;;5056426;28;20024;-87
2022/04/12 00:44:59;;;;;;;9.85;4.40;;;7.40;99.90;;;;;;5056836;28;20537;-88
2022/04/12 00:47:39;;;;;;;6.43;4.25;;;7.50;99.90;;;;;;5056648;28;20029;-87
2022/04/12 00:50:06;;;;;;;8.93;4.18;;;7.40;99.90;;;;;;5074292;28;20028;-87
2022/04/12 00:52:39;;;;;;;8.10;3.92;;;7.40;99.90;;;;;;5074084;28;20396;-87
2022/04/12 00:55:05;;;;;;;12.50;4.93;;;7.30;99.90;;;;;;5056561;28;20025;-86
2022/04/12 00:57:36;;;;;;;5.88;4.15;;;7.20;99.90;;;;;;5074927;28;20051;-87
2022/04/12 01:00:05;;;;;;;9.48;5.03;;;7.00;99.90;;;;;;5056229;28;20059;-87
2022/04/12 01:02:32;;;;;;;13.38;5.43;;;6.90;99.90;;;;;;5039810;28;20419;-87
2022/04/12 01:05:00;;;;;;;9.43;4.72;;;6.90;99.90;;;;;;5074096;28;20095;-87
2022/04/12 01:07:26;;;;;;;8.52;5.32;;;6.70;99.90;;;;;;5074455;28;20083;-87
2022/04/12 01:10:00;;;;;;;9.50;5.00;;;6.70;99.90;;;;;;5074307;28;20024;-87
2022/04/12 01:12:28;;;;;;;11.05;4.93;;;6.60;99.90;;;;;;5036370;28;20615;-87
2022/04/12 01:14:54;;;;;;;9.20;5.10;;;6.50;99.90;;;;;;5036414;28;20112;-87
2022/04/12 01:17:22;;;;;;;10.32;5.07;;;6.40;99.90;;;;;;5054180;28;20095;-87
2022/04/12 01:19:47;;;;;;;11.65;5.30;;;6.30;99.90;;;;;;5036011;28;20025;-87
2022/04/12 01:22:29;;;;;;;8.57;4.40;;;6.30;99.90;;;;;;5054123;28;20435;-86
2022/04/12 01:24:55;;;;;;;8.13;4.70;;;6.50;99.90;;;;;;5054115;28;20036;-86
2022/04/12 01:27:20;;;;;;;7.97;4.28;;;6.60;99.90;;;;;;5054030;28;20029;-87
2022/04/12 01:29:49;;;;;;;6.55;4.30;;;6.80;99.90;;;;;;5061402;28;20050;-86
2022/04/12 01:32:15;;;;;;;10.95;4.57;;;6.90;99.90;;;;;;5073732;28;20028;-86
2022/04/12 01:34:46;;;;;;;7.75;4.30;;;7.00;99.90;;;;;;5072530;28;20028;-86
2022/04/12 01:37:15;;;;;;;8.82;4.60;;;7.10;99.90;;;;;;5055823;28;20391;-87
2022/04/12 01:39:41;;;;;;;9.30;4.15;;;7.30;99.90;;;;;;5073630;28;20443;-87
2022/04/12 01:42:07;;;;;;;9.13;4.80;;;7.30;99.90;;;;;;5053714;28;20067;-87
2022/04/12 01:44:51;;;;;;;6.78;4.05;;;7.40;99.90;;;;;;5053648;28;20057;-86
2022/04/12 01:47:17;;;;;;;8.10;3.88;;;7.40;99.90;;;;;;5053610;28;20082;-87
2022/04/12 01:49:44;;;;;;;7.03;3.40;;;7.50;99.90;;;;;;5053275;28;20017;-86
2022/04/12 01:52:10;;;;;;;6.95;3.70;;;7.50;99.90;;;;;;5053458;28;20059;-87
2022/04/12 01:54:36;;;;;;;6.53;3.60;;;7.50;99.90;;;;;;5063807;28;20020;-86
2022/04/12 01:57:04;;;;;;;6.35;3.67;;;7.40;99.90;;;;;;5055656;28;20031;-87
2022/04/12 01:59:30;;;;;;;6.90;3.80;;;7.50;99.90;;;;;;5055359;28;20037;-86
2022/04/12 02:01:56;;;;;;;8.07;3.65;;;7.40;99.90;;;;;;5073265;28;20162;-86
2022/04/12 02:04:24;;;;;;;5.30;3.47;;;7.40;99.90;;;;;;5072305;28;20036;-86
2022/04/12 02:06:49;;;;;;;10.07;4.40;;;7.30;99.90;;;;;;5073315;28;20030;-86
2022/04/12 02:09:15;;;;;;;9.38;4.55;;;7.20;99.90;;;;;;5073084;28;20028;-86
2022/04/12 02:11:45;;;;;;;10.95;4.95;;;7.00;99.90;;;;;;5073034;28;20028;-86
2022/04/12 02:14:11;;;;;;;7.38;4.82;;;6.90;99.90;;;;;;5073004;28;20044;-86
2022/04/12 02:16:36;;;;;;;10.95;4.22;;;6.80;99.90;;;;;;5073086;28;20024;-87
2022/04/12 02:19:03;;;;;;;9.15;4.93;;;6.60;99.90;;;;;;5072591;28;20476;-87
2022/04/12 02:21:29;;;;;;;8.80;4.90;;;6.40;99.90;;;;;;5072989;28;20052;-87
2022/04/12 02:23:54;;;;;;;8.48;3.85;;;6.30;99.90;;;;;;5070344;28;20506;-86
2022/04/12 02:26:27;;;;;;;4.82;3.83;;;6.30;99.90;;;;;;5072542;28;20388;-86
2022/04/12 02:28:53;;;;;;;10.13;4.82;;;6.20;99.90;;;;;;5054992;28;20031;-87
2022/04/12 02:31:47;;;;;;;7.95;4.07;;;6.10;99.90;;;;;;5054725;28;20035;-87
2022/04/12 02:34:13;;;;;;;5.85;3.80;;;6.10;99.90;;;;;;5072505;28;20024;-87
2022/04/12 02:36:51;;;;;;;8.73;3.63;;;6.00;99.90;;;;;;5072693;28;20021;-86
2022/04/12 02:39:16;;;;;;;7.07;3.83;;;5.90;99.90;;;;;;5072877;28;20028;-87
2022/04/12 02:41:48;;;;;;;6.57;3.70;;;5.90;99.90;;;;;;5072364;28;20036;-86
2022/04/12 02:44:14;;;;;;;7.43;3.88;;;5.80;99.90;;;;;;5072367;28;20031;-87
2022/04/12 02:46:51;;;;;;;10.13;4.30;;;5.70;99.90;;;;;;5054370;28;20032;-87
2022/04/12 02:49:17;;;;;;;7.53;3.80;;;5.60;99.90;;;;;;5072458;28;20052;-87
2022/04/12 02:51:42;;;;;;;8.05;4.22;;;5.50;99.90;;;;;;5054342;28;20033;-87
2022/04/12 02:54:11;;;;;;;6.78;3.67;;;5.50;99.90;;;;;;5072379;28;20028;-87
2022/04/12 02:56:37;;;;;;;8.68;3.95;;;5.30;99.90;;;;;;5054656;28;20025;-87
2022/04/12 02:59:15;;;;;;;5.45;3.97;;;5.30;99.90;;;;;;5072510;28;20029;-87
2022/04/12 03:01:41;;;;;;;4.68;3.25;;;5.30;99.90;;;;;;5054320;28;20070;-87
2022/04/12 03:04:06;;;;;;;4.78;3.17;;;5.30;99.90;;;;;;5072038;28;20025;-87
2022/04/12 03:06:32;;;;;;;6.22;3.63;;;5.30;99.90;;;;;;5072522;28;20429;-87
2022/04/12 03:08:57;;;;;;;8.20;3.78;;;5.30;99.90;;;;;;5072516;28;20031;-87
2022/04/12 03:11:27;;;;;;;5.95;3.75;;;5.30;99.90;;;;;;5054135;28;20074;-86
2022/04/12 03:13:53;;;;;;;7.97;4.20;;;5.30;99.90;;;;;;5071916;28;20029;-86
2022/04/12 03:16:23;;;;;;;5.82;3.58;;;5.20;99.90;;;;;;5072274;28;20476;-86
2022/04/12 03:18:49;;;;;;;7.82;3.75;;;5.20;99.90;;;;;;5053878;28;20476;-86
2022/04/12 03:21:16;;;;;;;8.02;4.10;;;5.10;99.90;;;;;;5072314;28;20031;-87
2022/04/12 03:24:02;;;;;;;6.05;3.25;;;5.10;99.90;;;;;;5072165;28;20416;-86
2022/04/12 03:26:27;;;;;;;4.50;3.20;;;5.10;99.90;;;;;;5072114;28;20028;-86
2022/04/12 03:28:53;;;;;;;5.22;3.75;;;5.10;99.90;;;;;;5072342;28;20037;-86
2022/04/12 03:31:26;;;;;;;5.22;3.65;;;5.10;99.90;;;;;;5053887;28;20498;-87
2022/04/12 03:33:51;;;;;;;5.47;3.17;;;5.00;99.90;;;;;;5071893;28;20035;-87
2022/04/12 03:36:17;;;;;;;8.25;4.43;;;5.00;99.90;;;;;;5072076;28;20396;-86
2022/04/12 03:38:48;;;;;;;10.07;4.35;;;5.00;99.90;;;;;;5072308;28;20060;-87
2022/04/12 03:41:22;;;;;;;6.70;3.80;;;5.00;99.90;;;;;;5072012;28;20511;-86
2022/04/12 03:43:49;;;;;;;8.48;4.18;;;4.90;99.90;;;;;;5072043;28;20021;-87
2022/04/12 03:46:14;;;;;;;4.88;3.55;;;4.80;99.90;;;;;;5054230;28;20057;-86
2022/04/12 03:48:50;;;;;;;11.57;3.75;;;4.80;99.90;;;;;;5071793;28;20056;-87
2022/04/12 03:51:15;;;;;;;6.85;3.78;;;4.80;99.90;;;;;;5053943;28;20539;-87
2022/04/12 03:53:49;;;;;;;5.28;3.33;;;4.80;99.90;;;;;;5071819;28;20099;-86
2022/04/12 03:56:15;;;;;;;6.00;3.80;;;4.80;99.90;;;;;;5069933;28;20028;-86
2022/04/12 03:58:58;;;;;;;6.43;3.85;;;4.80;99.90;;;;;;5075636;28;20087;-87
2022/04/12 04:01:50;;;;;;;9.35;3.47;;;4.80;99.90;;;;;;5057599;28;20034;-86
2022/04/12 04:04:22;;;;;;;6.35;4.13;;;4.80;99.90;;;;;;5074861;28;20028;-87
2022/04/12 04:06:48;;;;;;;6.78;4.72;;;4.70;99.90;;;;;;5066878;28;20032;-87
2022/04/12 04:09:15;;;;;;;8.88;3.83;;;4.70;99.90;;;;;;5075599;28;20437;-87
2022/04/12 04:11:51;;;;;;;3.45;3.15;;;4.60;99.90;;;;;;5075241;28;20021;-87
2022/04/12 04:14:17;;;;;;;4.72;3.53;;;4.60;99.90;;;;;;5075308;28;20028;-87
2022/04/12 04:16:57;;;;;;;7.18;4.22;;;4.50;99.90;;;;;;5075278;28;20461;-86
2022/04/12 04:19:22;;;;;;;5.15;3.78;;;4.50;99.90;;;;;;5074816;28;20020;-86
2022/04/12 04:21:55;;;;;;;9.65;4.38;;;4.40;99.90;;;;;;5075214;28;20033;-86
2022/04/12 04:24:27;;;;;;;10.40;3.60;;;4.40;99.90;;;;;;5074973;28;20137;-86
2022/04/12 04:26:55;;;;;;;5.82;4.13;;;4.40;99.90;;;;;;5037248;28;20056;-87
2022/04/12 04:29:32;;;;;;;5.25;3.78;;;4.40;99.90;;;;;;5054985;28;20365;-86
2022/04/12 04:31:58;;;;;;;6.55;3.97;;;4.40;99.90;;;;;;5054956;28;20025;-86
2022/04/12 04:34:27;;;;;;;7.78;3.95;;;4.50;99.90;;;;;;5065845;28;20067;-86
2022/04/12 04:36:52;;;;;;;6.20;4.38;;;4.30;99.90;;;;;;5074828;28;20104;-86
2022/04/12 04:39:19;;;;;;;10.20;4.50;;;4.30;99.90;;;;;;5074861;28;20150;-87
2022/04/12 04:41:45;;;;;;;12.80;4.88;;;4.20;99.90;;;;;;5056939;28;20028;-87
2022/04/12 04:44:10;;;;;;;5.68;3.90;;;4.30;99.90;;;;;;5074931;28;20021;-87
2022/04/12 04:46:39;;;;;;;7.43;4.45;;;4.20;99.90;;;;;;5074821;28;20032;-87
2022/04/12 04:49:06;;;;;;;10.00;4.68;;;4.20;99.90;;;;;;5074373;28;20557;-87
2022/04/12 04:51:35;;;;;;;14.80;4.80;;;4.20;99.90;;;;;;5074565;28;20047;-87
2022/04/12 04:54:01;;;;;;;11.63;4.72;;;4.30;99.90;;;;;;5074024;28;20028;-87
2022/04/12 04:56:27;;;;;;;9.73;4.63;;;4.30;99.90;;;;;;5056468;28;20033;-87
2022/04/12 04:58:58;;;;;;;8.10;4.57;;;4.30;99.90;;;;;;5074351;28;20031;-87
2022/04/12 05:01:24;;;;;;;6.70;4.63;;;4.30;99.90;;;;;;5074233;28;20037;-87
2022/04/12 05:03:55;;;;;;;8.48;4.88;;;4.30;99.90;;;;;;5074099;28;20033;-86
2022/04/12 05:06:21;;;;;;;7.15;4.35;;;4.30;99.90;;;;;;5074104;28;20029;-88
2022/04/12 05:08:52;;;;;;;14.20;5.50;;;4.30;99.90;;;;;;5073741;28;20111;-88
2022/04/12 05:11:18;;;;;;;6.40;4.90;;;4.30;99.90;;;;;;5055615;28;20029;-87
2022/04/12 05:13:44;;;;;;;9.88;6.28;;;4.40;99.90;;;;;;5074042;28;20040;-87
2022/04/12 05:16:09;;;;;;;13.60;6.57;;;4.50;99.90;;;;;;5074162;28;20021;-87
2022/04/12 05:18:35;;;;;;;9.90;6.15;;;4.60;99.90;;;;;;5056178;28;20491;-86
2022/04/12 05:21:03;;;;;;;11.20;6.47;;;4.60;99.90;;;;;;5073800;28;20046;-86
2022/04/12 05:23:36;;;;;;;10.75;6.63;;;4.70;99.90;;;;;;5055361;28;20045;-87
2022/04/12 05:26:02;;;;;;;12.93;5.60;;;4.80;99.90;;;;;;5056147;28;20031;-87
2022/04/12 05:28:34;;;;;;;10.00;5.75;;;4.80;99.90;;;;;;5073917;28;20020;-87
2022/04/12 05:30:59;;;;;;;10.00;6.03;;;4.90;99.90;;;;;;5073086;28;20020;-87
2022/04/12 05:34:00;;;;;;;18.20;6.03;;;4.90;99.90;;;;;;5072976;28;20077;-87
2022/04/12 05:36:26;;;;;;;14.95;6.05;;;4.90;99.90;;;;;;5055825;28;20020;-87
2022/04/12 05:38:51;;;;;;;11.50;5.75;;;5.00;99.90;;;;;;5073403;28;20539;-87
2022/04/12 05:41:17;;;;;;;11.90;6.35;;;5.00;99.90;;;;;;5073690;28;20385;-87
2022/04/12 05:44:01;;;;;;;12.45;6.97;;;5.10;99.90;;;;;;5073337;28;20032;-86
2022/04/12 05:46:27;;;;;;;16.95;8.32;;;5.20;99.90;;;;;;5055204;28;20044;-87
2022/04/12 05:49:00;;;;;;;28.92;14.23;;;5.30;99.90;;;;;;5055167;28;20060;-87
2022/04/12 05:51:26;;;;;;;29.45;14.00;;;5.30;99.90;;;;;;5073199;28;20031;-87
2022/04/12 05:53:52;;;;;;;22.33;12.18;;;5.40;99.90;;;;;;5073234;28;20033;-87
2022/04/12 05:56:18;;;;;;;25.15;12.52;;;5.50;99.90;;;;;;5073219;28;20365;-87
2022/04/12 05:58:44;;;;;;;17.40;9.00;;;5.50;99.90;;;;;;5073337;28;20081;-87
2022/04/12 06:01:09;;;;;;;17.50;9.40;;;5.60;99.90;;;;;;5073065;28;20031;-87
2022/04/12 06:04:07;;;;;;;17.70;7.55;;;5.60;99.90;;;;;;5055024;28;20044;-87
2022/04/12 06:06:34;;;;;;;14.20;7.03;;;5.70;99.90;;;;;;5073052;28;20020;-87
2022/04/12 06:09:05;;;;;;;15.15;7.15;;;5.80;99.90;;;;;;5072706;28;20020;-87
2022/04/12 06:11:30;;;;;;;19.20;6.65;;;5.80;99.90;;;;;;5072983;28;20036;-87
2022/04/12 06:14:03;;;;;;;12.35;6.63;;;5.90;99.90;;;;;;5072706;28;20108;-87
2022/04/12 06:16:28;;;;;;;14.63;7.13;;;6.00;99.90;;;;;;5054799;28;20028;-87
2022/04/12 06:19:02;;;;;;;13.27;7.50;;;6.10;99.90;;;;;;5072541;28;20380;-87
2022/04/12 06:21:28;;;;;;;14.50;8.48;;;6.20;99.90;;;;;;5069867;28;20043;-88
2022/04/12 06:23:53;;;;;;;15.38;8.75;;;6.30;99.90;;;;;;5072691;28;20049;-87
2022/04/12 06:26:23;;;;;;;18.10;9.70;;;6.30;99.90;;;;;;5072990;28;20033;-87
2022/04/12 06:28:48;;;;;;;24.85;8.85;;;6.40;99.90;;;;;;5055008;28;20044;-86
2022/04/12 06:31:14;;;;;;;20.48;9.23;;;6.40;99.90;;;;;;5054876;28;20488;-86
2022/04/12 06:33:50;;;;;;;13.70;8.25;;;6.50;99.90;;;;;;5072377;28;20024;-87
2022/04/12 06:36:16;;;;;;;13.05;6.93;;;6.60;99.90;;;;;;5072951;28;20451;-87
2022/04/12 06:38:42;;;;;;;13.80;6.38;;;6.70;99.90;;;;;;5054554;28;20063;-87
2022/04/12 06:41:08;;;;;;;9.60;5.45;;;6.80;99.90;;;;;;5054844;28;20017;-87
2022/04/12 06:43:37;;;;;;;8.60;5.30;;;6.90;99.90;;;;;;5072494;28;20017;-87
2022/04/12 06:46:02;;;;;;;8.75;5.53;;;6.90;99.90;;;;;;5073053;28;20073;-87
2022/04/12 06:48:29;;;;;;;10.63;5.45;;;6.90;99.90;;;;;;5072109;28;20103;-86
2022/04/12 06:51:14;;;;;;;11.13;5.55;;;7.00;99.90;;;;;;5072595;28;20086;-87
2022/04/12 06:53:40;;;;;;;12.57;5.38;;;7.10;99.90;;;;;;5072511;28;20032;-88
2022/04/12 06:56:06;;;;;;;18.98;7.03;;;7.10;99.90;;;;;;5054530;28;20039;-87
2022/04/12 06:58:33;;;;;;;18.00;7.70;;;7.20;99.90;;;;;;5054599;28;20106;-87
2022/04/12 07:01:00;;;;;;;23.85;6.60;;;7.20;99.90;;;;;;5072482;28;20020;-87
2022/04/12 07:03:26;;;;;;;8.13;5.15;;;7.30;99.90;;;;;;5071796;28;20070;-86
2022/04/12 07:05:55;;;;;;;13.30;6.63;;;7.30;99.90;;;;;;5072308;28;20029;-87
2022/04/12 07:08:22;;;;;;;225.07;23.85;;;7.40;99.90;;;;;;5072618;28;20112;-86
2022/04/12 07:10:48;;;;;;;76.07;12.75;;;7.40;99.90;;;;;;5054538;28;20055;-86
2022/04/12 07:13:15;;;;;;;22.27;7.68;;;7.40;99.90;;;;;;5072217;28;20063;-86
2022/04/12 07:15:40;;;;;;;25.10;7.28;;;7.40;99.90;;;;;;5072400;28;20048;-86
2022/04/12 07:18:20;;;;;;;19.67;6.20;;;7.40;99.90;;;;;;5071633;28;20051;-86
2022/04/12 07:20:46;;;;;;;22.05;6.30;;;7.40;99.90;;;;;;5072383;28;20025;-86
2022/04/12 07:23:11;;;;;;;15.23;5.72;;;7.40;99.90;;;;;;5071684;28;20056;-86
2022/04/12 07:25:39;;;;;;;16.85;6.20;;;7.50;99.90;;;;;;5054221;28;20028;-86
2022/04/12 07:28:05;;;;;;;13.32;7.13;;;7.50;99.90;;;;;;5072188;28;20037;-86
2022/04/12 07:30:33;;;;;;;14.50;6.95;;;7.60;99.90;;;;;;5072160;28;20024;-86
2022/04/12 07:32:59;;;;;;;9.95;7.18;;;7.60;99.90;;;;;;5074593;28;20031;-87
2022/04/12 07:35:27;;;;;;;16.27;8.23;;;7.70;99.90;;;;;;5076383;28;20024;-87
2022/04/12 07:37:53;;;;;;;15.13;7.18;;;7.80;99.90;;;;;;5076081;28;20017;-86
2022/04/12 07:40:31;;;;;;;15.30;7.55;;;7.90;99.90;;;;;;5075530;28;20025;-86
2022/04/12 07:42:57;;;;;;;13.93;7.13;;;8.10;99.90;;;;;;5075897;28;20093;-87
2022/04/12 07:45:31;;;;;;;17.38;8.85;;;8.20;99.90;;;;;;5075728;28;20111;-87
2022/04/12 07:47:56;;;;;;;18.30;8.55;;;8.30;99.90;;;;;;5075517;28;20078;-87
2022/04/12 07:50:24;;;;;;;19.08;8.38;;;8.40;99.90;;;;;;5075941;28;21045;-88
2022/04/12 07:52:49;;;;;;;11.27;6.88;;;8.50;99.90;;;;;;5057794;28;20125;-86
2022/04/12 07:55:22;;;;;;;17.30;8.57;;;8.70;99.90;;;;;;5075780;28;20071;-86
2022/04/12 07:57:47;;;;;;;16.50;7.75;;;8.70;99.90;;;;;;5075246;28;20029;-86
2022/04/12 08:00:15;;;;;;;11.82;7.50;;;8.80;99.90;;;;;;5075404;28;20039;-87
2022/04/12 08:02:41;;;;;;;16.77;8.25;;;8.90;99.90;;;;;;5057210;28;20501;-86
2022/04/12 08:05:07;;;;;;;14.65;8.05;;;9.00;99.90;;;;;;5075416;28;20056;-86
2022/04/12 08:07:33;;;;;;;17.67;7.72;;;9.20;99.90;;;;;;5057676;28;20032;-86
2022/04/12 08:10:02;;;;;;;13.98;7.00;;;9.30;99.90;;;;;;5075522;28;20039;-86
2022/04/12 08:12:27;;;;;;;18.38;7.30;;;9.40;99.90;;;;;;5075379;28;20483;-86
2022/04/12 08:14:55;;;;;;;23.23;6.55;;;9.50;99.90;;;;;;5074998;28;20028;-87
2022/04/12 08:17:20;;;;;;;11.05;6.32;;;9.60;99.90;;;;;;5057001;28;20389;-86
2022/04/12 08:19:51;;;;;;;10.15;5.32;;;9.80;99.90;;;;;;5074752;28;20028;-86
2022/04/12 08:22:16;;;;;;;27.45;3.97;;;10.00;99.90;;;;;;5074871;28;20028;-87
2022/04/12 08:24:42;;;;;;;5.10;2.78;;;10.20;99.90;;;;;;5052729;28;20064;-87
2022/04/12 08:27:14;;;;;;;5.85;2.92;;;10.60;99.90;;;;;;5055227;28;20535;-87
2022/04/12 08:29:39;;;;;;;7.95;2.60;;;11.00;99.90;;;;;;5055036;28;20040;-87
2022/04/12 08:32:06;;;;;;;7.97;2.63;;;11.20;99.90;;;;;;5054785;28;20389;-87
2022/04/12 08:34:32;;;;;;;7.40;2.47;;;11.40;99.90;;;;;;5070828;28;20472;-87
2022/04/12 08:36:58;;;;;;;6.88;3.03;;;11.70;99.90;;;;;;5055016;28;20025;-87
2022/04/12 08:39:23;;;;;;;6.13;2.97;;;11.90;99.70;;;;;;5053461;28;20021;-87
2022/04/12 08:41:52;;;;;;;5.85;2.20;;;12.00;97.90;;;;;;5054987;28;20032;-87
2022/04/12 08:44:20;;;;;;;5.22;2.55;;;12.20;96.00;;;;;;5054179;28;20017;-87
2022/04/12 08:46:46;;;;;;;5.72;3.50;;;12.30;91.50;;;;;;5053162;28;20447;-86
2022/04/12 08:49:18;;;;;;;14.05;7.68;;;12.50;90.80;;;;;;5054471;28;20033;-87
2022/04/12 08:51:46;;;;;;;9.50;5.72;;;12.60;87.80;;;;;;5034602;28;20116;-86
2022/04/12 08:54:11;;;;;;;7.35;2.20;;;12.60;89.40;;;;;;5034805;28;20026;-87
2022/04/12 08:56:40;;;;;;;9.38;2.72;;;12.60;91.30;;;;;;5034752;28;20048;-87
2022/04/12 08:59:05;;;;;;;6.20;2.90;;;12.70;86.60;;;;;;5034807;28;20351;-87
2022/04/12 09:01:31;;;;;;;5.75;2.45;;;12.70;85.20;;;;;;5034871;28;20040;-84
2022/04/12 09:04:07;;;;;;;7.32;2.78;;;12.80;88.00;;;;;;5034135;28;20031;-84
2022/04/12 09:06:33;;;;;;;16.80;3.00;;;12.90;82.90;;;;;;5045951;28;20033;-84
2022/04/12 09:09:18;;;;;;;99.30;5.18;;;12.90;86.40;;;;;;5054172;28;20028;-84
2022/04/12 09:12:03;;;;;;;9.75;2.72;;;12.90;80.20;;;;;;5053940;28;20522;-84
2022/04/12 09:14:58;;;;;;;9.32;3.33;;;13.00;83.40;;;;;;5054336;28;20029;-84
2022/04/12 09:17:31;;;;;;;8.38;2.67;;;13.00;81.10;;;;;;5053843;28;20036;-84
2022/04/12 09:20:10;;;;;;;9.25;2.50;;;13.10;82.80;;;;;;5054348;28;20013;-84
2022/04/12 09:22:35;;;;;;;6.70;2.55;;;13.20;74.60;;;;;;5052510;28;20500;-84
2022/04/12 09:25:03;;;;;;;4.57;2.45;;;13.30;71.90;;;;;;5067125;28;20041;-87
2022/04/12 09:27:40;;;;;;;7.55;3.22;;;13.50;74.70;;;;;;5073548;28;20039;-86
2022/04/12 09:30:06;;;;;;;8.77;2.13;;;13.50;73.90;;;;;;5073769;28;20021;-88
2022/04/12 09:32:37;;;;;;;5.13;2.90;;;13.60;77.20;;;;;;5053694;28;20029;-87
2022/04/12 09:35:03;;;;;;;29.85;4.03;;;13.70;63.70;;;;;;5035927;28;20056;-85
2022/04/12 09:37:36;;;;;;;7.05;3.03;;;13.80;67.20;;;;;;5051793;28;20035;-86
2022/04/12 09:40:02;;;;;;;6.50;2.97;;;13.90;56.30;;;;;;5055104;28;20032;-86
2022/04/12 09:42:48;;;;;;;7.53;2.78;;;13.90;59.30;;;;;;5073638;28;20024;-86
2022/04/12 09:45:19;;;;;;;6.65;3.33;;;13.90;57.60;;;;;;5056069;28;20073;-86
2022/04/12 09:47:47;;;;;;;8.15;3.30;;;14.00;59.80;;;;;;5073226;28;20430;-85
2022/04/12 09:50:13;;;;;;;9.65;3.20;;;14.00;56.00;;;;;;5073610;28;20108;-86
2022/04/12 09:53:01;;;;;;;4.63;2.60;;;14.00;56.40;;;;;;5073544;28;20107;-87
2022/04/12 09:55:49;;;;;;;5.07;2.80;;;14.00;54.60;;;;;;5072668;28;20020;-86
2022/04/12 09:58:35;;;;;;;4.15;2.13;;;14.00;57.10;;;;;;5073466;28;20494;-83
2022/04/12 10:01:00;;;;;;;5.20;1.98;;;14.10;59.90;;;;;;5073364;28;20020;-83
2022/04/12 10:03:28;;;;;;;5.25;2.58;;;14.10;57.00;;;;;;5054915;28;20082;-83
2022/04/12 10:05:55;;;;;;;4.63;2.15;;;14.20;54.70;;;;;;5073246;28;20024;-83
2022/04/12 10:08:23;;;;;;;8.68;2.50;;;14.30;53.30;;;;;;5055430;28;20021;-83
2022/04/12 10:10:50;;;;;;;3.85;2.25;;;14.30;54.10;;;;;;5073568;28;20419;-83
2022/04/12 10:13:22;;;;;;;6.05;2.40;;;14.30;53.10;;;;;;5055187;28;20384;-84
2022/04/12 10:15:48;;;;;;;19.30;2.63;;;14.30;53.00;;;;;;5073153;28;20024;-83
2022/04/12 10:18:20;;;;;;;3.75;1.83;;;14.40;52.30;;;;;;5054896;28;20025;-84
2022/04/12 10:20:46;;;;;;;4.32;2.10;;;14.50;48.90;;;;;;5072971;28;20013;-83
2022/04/12 10:23:30;;;;;;;2.85;2.00;;;14.50;47.60;;;;;;5072893;28;20062;-83
2022/04/12 10:25:57;;;;;;;7.20;2.90;;;14.50;49.50;;;;;;5053001;28;20386;-83
2022/04/12 10:28:25;;;;;;;3.22;2.13;;;14.60;47.70;;;;;;5053107;28;20074;-83
2022/04/12 10:31:00;;;;;;;5.55;2.10;;;14.70;50.20;;;;;;5052991;28;20071;-83
2022/04/12 10:33:27;;;;;;;5.63;2.80;;;14.70;52.50;;;;;;5051609;28;20029;-83
2022/04/12 10:35:55;;;;;;;7.60;2.40;;;14.80;50.20;;;;;;5052946;28;20279;-83
2022/04/12 10:38:22;;;;;;;8.80;2.33;;;14.90;48.80;;;;;;5052829;28;20024;-83
2022/04/12 10:40:49;;;;;;;7.57;2.55;;;14.90;50.80;;;;;;5051187;28;20388;-82
2022/04/12 10:43:33;;;;;;;4.72;2.50;;;14.90;51.40;;;;;;5052603;28;20079;-82
2022/04/12 10:46:00;;;;;;;5.90;1.80;;;15.00;48.20;;;;;;5052632;28;20104;-83
2022/04/12 10:48:29;;;;;;;5.57;2.47;;;15.00;49.10;;;;;;5050987;28;20036;-82
2022/04/12 10:50:58;;;;;;;5.35;2.88;;;15.10;48.20;;;;;;5052092;28;20028;-81
2022/04/12 10:53:38;;;;;;;5.97;3.03;;;15.10;49.00;;;;;;5051820;28;20035;-82
2022/04/12 10:56:12;;;;;;;7.03;3.42;;;15.10;50.30;;;;;;5052410;28;20485;-82
2022/04/12 10:58:40;;;;;;;12.32;3.30;;;15.10;49.90;;;;;;5052423;28;20520;-83
2022/04/12 11:01:09;;;;;;;7.45;2.80;;;15.10;49.50;;;;;;5052488;28;20488;-83
2022/04/12 11:03:43;;;;;;;4.40;2.38;;;15.10;49.80;;;;;;5052018;28;20107;-82
2022/04/12 11:06:12;;;;;;;11.60;3.20;;;15.20;50.60;;;;;;5054008;28;20017;-82
2022/04/12 11:08:48;;;;;;;5.38;2.65;;;15.10;48.90;;;;;;5056553;28;20040;-82
2022/04/12 11:11:21;;;;;;;4.88;2.90;;;15.20;49.90;;;;;;5056558;28;20029;-83
2022/04/12 11:13:49;;;;;;;11.57;3.65;;;15.20;50.50;;;;;;5055037;28;20025;-82
2022/04/12 11:16:18;;;;;;;6.07;2.83;;;15.30;50.30;;;;;;5055324;28;20025;-83
2022/04/12 11:18:48;;;;;;;5.40;2.90;;;15.40;48.50;;;;;;5054855;28;20384;-82
2022/04/12 11:21:15;;;;;;;9.38;3.85;;;15.50;48.50;;;;;;5056805;28;20021;-83
2022/04/12 11:23:55;;;;;;;6.93;2.65;;;15.70;48.90;;;;;;5057640;28;20017;-82
2022/04/12 11:26:40;;;;;;;5.88;3.03;;;15.70;48.60;;;;;;5058395;28;20088;-82
2022/04/12 11:29:28;;;;;;;4.28;2.53;;;15.70;47.20;;;;;;5076330;28;20103;-84
2022/04/12 11:31:55;;;;;;;6.18;3.03;;;15.80;47.80;;;;;;5075883;28;20036;-82
2022/04/12 11:34:29;;;;;;;3.30;2.60;;;15.80;47.60;;;;;;5058391;28;20407;-83
2022/04/12 11:37:04;;;;;;;6.65;2.58;;;15.90;46.70;;;;;;5076228;28;20016;-82
2022/04/12 11:39:31;;;;;;;5.60;2.80;;;15.90;46.10;;;;;;5076175;28;20385;-82
2022/04/12 11:42:01;;;;;;;7.38;2.30;;;15.90;48.00;;;;;;5076177;28;20081;-82
2022/04/12 11:44:27;;;;;;;4.53;2.25;;;16.00;47.50;;;;;;5075967;28;20024;-83
2022/04/12 11:46:58;;;;;;;8.52;2.33;;;16.00;47.80;;;;;;5075695;28;20021;-82
2022/04/12 11:49:29;;;;;;;5.68;2.30;;;16.10;46.10;;;;;;5058181;28;20025;-82
2022/04/12 11:51:58;;;;;;;4.10;2.20;;;16.10;46.60;;;;;;5057880;28;20059;-83
2022/04/12 11:54:26;;;;;;;8.57;3.03;;;16.10;48.00;;;;;;5075768;28;20070;-82
2022/04/12 11:57:04;;;;;;;11.85;2.60;;;16.20;46.50;;;;;;5075780;28;20178;-82
2022/04/12 11:59:52;;;;;;;4.95;2.30;;;16.20;47.60;;;;;;5075861;28;20095;-82
2022/04/12 12:02:28;;;;;;;11.80;3.78;;;16.20;47.30;;;;;;5075289;28;20029;-82
2022/04/12 12:04:56;;;;;;;;;;;16.30;46.80;;;;;;5075966;28;20052;-83
2022/04/12 12:07:21;;;;;;;3.50;2.20;;;16.40;44.70;;;;;;5075746;28;20371;-83
2022/04/12 12:10:14;;;;;;;4.93;2.35;;;16.50;45.70;;;;;;5057790;28;20028;-82
2022/04/12 12:12:42;;;;;;;4.75;2.55;;;16.50;47.20;;;;;;5072340;28;20032;-82
2022/04/12 12:15:25;;;;;;;2.92;2.20;;;16.60;43.60;;;;;;5075293;28;20074;-82
2022/04/12 12:17:58;;;;;;;6.88;2.47;;;16.70;43.30;;;;;;5073913;28;20017;-82
2022/04/12 12:20:30;;;;;;;6.13;2.95;;;16.70;44.00;;;;;;5075729;28;20027;-82
2022/04/12 12:23:04;;;;;;;2.50;1.95;;;16.80;43.70;;;;;;5075171;28;20020;-82
2022/04/12 12:25:39;;;;;;;5.45;2.60;;;16.80;43.40;;;;;;5075120;28;20044;-82
2022/04/12 12:28:16;;;;;;;10.73;3.13;;;16.80;44.70;;;;;;5075427;28;20150;-82
2022/04/12 12:30:55;;;;;;;9.20;2.58;;;17.00;44.60;;;;;;5075197;28;20040;-82
2022/04/12 12:33:25;;;;;;;5.45;2.25;;;17.10;43.70;;;;;;5074861;28;20390;-82
2022/04/12 12:35:51;;;;;;;5.22;2.92;;;17.10;43.60;;;;;;5075197;28;20017;-82
2022/04/12 12:38:21;;;;;;;10.55;2.30;;;17.20;45.00;;;;;;5075061;28;20028;-82
2022/04/12 12:40:55;;;;;;;12.48;2.63;;;17.20;44.90;;;;;;5075136;28;20119;-82
2022/04/12 12:43:20;;;;;;;7.70;2.63;;;17.20;44.80;;;;;;5075101;28;20032;-82
2022/04/12 12:45:50;;;;;;;8.55;2.60;;;17.30;45.60;;;;;;5057090;28;20449;-82
2022/04/12 12:48:16;;;;;;;10.43;2.53;;;17.30;44.10;;;;;;5074532;28;20032;-81
2022/04/12 12:50:45;;;;;;;8.68;2.58;;;17.40;43.50;;;;;;5074831;28;20024;-83
2022/04/12 12:53:12;;;;;;;7.82;2.38;;;17.40;43.50;;;;;;5074651;28;20025;-82
2022/04/12 12:55:46;;;;;;;9.13;2.42;;;17.40;43.90;;;;;;5074535;28;20028;-83
2022/04/12 12:58:16;;;;;;;6.00;2.58;;;17.30;43.90;;;;;;5074831;28;20024;-83
2022/04/12 13:00:46;;;;;;;10.18;3.05;;;17.40;45.30;;;;;;5074690;28;20444;-83
2022/04/12 13:03:14;;;;;;;9.77;2.67;;;17.40;43.50;;;;;;5074403;28;20067;-82
2022/04/12 13:05:57;;;;;;;6.75;2.25;;;17.40;42.60;;;;;;5074550;28;20029;-82
2022/04/12 13:08:24;;;;;;;4.43;2.90;;;17.40;43.00;;;;;;5074565;28;20064;-83